Time;durP1;ratioP1;P1;durP2;ratioP2;P2;SDS_P1;SDS_P2;PMS_P1;PMS_P2;Temp;Humidity;BMP_temperature;BMP_pressure;BME280_temperature;BME280_humidity;BME280_pressure;Samples;Min_cycle;Max_cycle;Signal;HPM_P1;HPM_P2
2022/05/07 00:01:31;;;;;;;;;;;11.60;99.90;;;;;;5066534;28;20300;-71
2022/05/07 00:03:57;;;;;;;;;;;11.60;99.90;;;;;;5055533;28;19920;-71
2022/05/07 00:06:22;;;;;;;;;;;11.60;99.90;;;;;;5057450;28;19945;-71
2022/05/07 00:08:48;;;;;;;;;;;11.60;99.90;;;;;;5060900;28;20329;-72
2022/05/07 00:11:20;;;;;;;;;;;11.60;99.90;;;;;;5065226;28;20421;-71
2022/05/07 00:13:46;;;;;;;;;;;11.60;99.90;;;;;;5065980;28;19931;-71
2022/05/07 00:18:55;;;;;;;;;;;11.80;99.90;;;;;;5073688;28;20212;-70
2022/05/07 00:21:21;;;;;;;;;;;11.80;99.90;;;;;;5064701;28;19916;-71
2022/05/07 00:23:47;;;;;;;;;;;11.90;99.90;;;;;;5069749;28;19963;-70
2022/05/07 00:26:12;;;;;;;;;;;11.90;99.90;;;;;;5071869;28;20219;-70
2022/05/07 00:28:38;;;;;;;;;;;12.00;99.90;;;;;;5070099;28;19922;-70
2022/05/07 00:31:04;;;;;;;;;;;12.10;99.90;;;;;;5077284;28;19924;-70
2022/05/07 00:33:29;;;;;;;;;;;12.20;99.90;;;;;;5077113;28;19908;-70
2022/05/07 00:35:55;;;;;;;;;;;12.20;99.90;;;;;;5068674;28;19919;-70
2022/05/07 00:38:20;;;;;;;;;;;12.20;99.90;;;;;;5075076;28;19920;-71
2022/05/07 00:40:46;;;;;;;;;;;12.30;99.90;;;;;;5077032;28;20299;-70
2022/05/07 00:43:15;;;;;;;;;;;12.30;99.90;;;;;;5068836;28;19936;-71
2022/05/07 00:45:47;;;;;;;;;;;12.30;99.90;;;;;;5066455;28;19975;-71
2022/05/07 00:48:14;;;;;;;;;;;12.30;99.90;;;;;;5075641;28;19917;-70
2022/05/07 00:53:24;;;;;;;;;;;12.30;99.90;;;;;;5066568;28;19982;-71
2022/05/07 00:55:50;;;;;;;;;;;12.30;99.90;;;;;;5076819;28;19914;-70
2022/05/07 00:58:16;;;;;;;;;;;12.20;99.90;;;;;;5074780;28;19917;-71
2022/05/07 01:00:44;;;;;;;;;;;12.10;99.90;;;;;;5073652;28;19916;-71
2022/05/07 01:03:11;;;;;;;;;;;12.10;99.90;;;;;;5074346;28;19916;-71
2022/05/07 01:05:36;;;;;;;;;;;12.20;99.90;;;;;;5071160;28;19912;-71
2022/05/07 01:08:02;;;;;;;;;;;12.30;99.90;;;;;;5075451;28;19981;-70
2022/05/07 01:10:28;;;;;;;;;;;12.30;99.90;;;;;;5075674;28;19951;-71
2022/05/07 01:12:54;;;;;;;;;;;12.30;99.90;;;;;;5058107;28;19974;-71
2022/05/07 01:15:20;;;;;;;;;;;12.30;99.90;;;;;;5071096;28;19912;-71
2022/05/07 01:17:46;;;;;;;;;;;12.20;99.90;;;;;;5061404;28;19912;-71
2022/05/07 01:20:13;;;;;;;;;;;12.20;99.90;;;;;;5066878;28;19913;-71
2022/05/07 01:22:38;;;;;;;;;;;12.30;99.90;;;;;;5074334;28;19919;-70
2022/05/07 01:25:04;;;;;;;;;;;12.20;99.90;;;;;;5076069;28;19912;-71
2022/05/07 01:27:30;;;;;;;;;;;12.20;99.90;;;;;;5060924;28;19951;-71
2022/05/07 01:29:56;;;;;;;;;;;12.20;99.90;;;;;;5074076;28;19952;-71
2022/05/07 01:32:22;;;;;;;;;;;12.10;99.90;;;;;;5067827;28;19939;-71
2022/05/07 01:34:48;;;;;;;;;;;12.10;99.90;;;;;;5069812;28;19942;-71
2022/05/07 01:37:13;;;;;;;;;;;12.10;99.90;;;;;;5075022;28;19971;-71
2022/05/07 01:39:39;;;;;;;;;;;12.00;99.90;;;;;;5073655;28;20300;-71
2022/05/07 01:42:04;;;;;;;;;;;12.00;99.90;;;;;;5075996;28;19954;-71
2022/05/07 01:44:30;;;;;;;;;;;12.00;99.90;;;;;;5072085;28;19912;-71
2022/05/07 01:49:39;;;;;;;;;;;12.00;99.90;;;;;;5064686;28;19924;-71
2022/05/07 01:52:05;;;;;;;;;;;12.00;99.90;;;;;;5059568;28;19916;-71
2022/05/07 01:54:31;;;;;;;;;;;12.10;99.90;;;;;;5073539;28;20003;-71
2022/05/07 01:56:56;;;;;;;;;;;12.10;99.90;;;;;;5072548;28;19912;-71
2022/05/07 01:59:22;;;;;;;;;;;12.10;99.90;;;;;;5061763;28;20261;-71
2022/05/07 02:01:47;;;;;;;;;;;12.10;99.90;;;;;;5074218;28;19916;-71
2022/05/07 02:04:13;;;;;;;;;;;12.10;99.90;;;;;;5075974;28;20296;-71
2022/05/07 02:06:38;;;;;;;;;;;12.10;99.90;;;;;;5075539;28;19935;-71
2022/05/07 02:09:04;;;;;;;;;;;12.00;99.90;;;;;;5075356;28;19918;-71
2022/05/07 02:11:29;;;;;;;;;;;12.00;99.90;;;;;;5060984;28;19917;-71
2022/05/07 02:13:55;;;;;;;;;;;12.10;99.90;;;;;;5075156;28;20331;-71
2022/05/07 02:16:20;;;;;;;;;;;12.00;99.90;;;;;;5073234;28;20335;-71
2022/05/07 02:18:46;;;;;;;;;;;12.00;99.90;;;;;;5063473;28;20330;-70
2022/05/07 02:21:12;;;;;;;;;;;11.90;99.90;;;;;;5073103;28;19916;-71
2022/05/07 02:23:37;;;;;;;;;;;11.90;99.90;;;;;;5073472;28;19939;-71
2022/05/07 02:26:03;;;;;;;;;;;11.90;99.90;;;;;;5074627;28;19964;-71
2022/05/07 02:28:28;;;;;;;;;;;11.90;99.90;;;;;;5075923;28;19908;-71
2022/05/07 02:30:54;;;;;;;;;;;11.90;99.90;;;;;;5074075;28;20245;-71
2022/05/07 02:33:19;;;;;;;;;;;11.90;99.90;;;;;;5071749;28;19965;-71
2022/05/07 02:35:45;;;;;;;;;;;11.90;99.90;;;;;;5065756;28;19912;-71
2022/05/07 02:38:11;;;;;;;;;;;11.90;99.90;;;;;;5073343;28;20333;-70
2022/05/07 02:43:20;;;;;;;;;;;11.90;99.90;;;;;;5067759;28;19935;-71
2022/05/07 02:45:46;;;;;;;;;;;11.90;99.90;;;;;;5075762;28;20307;-71
2022/05/07 02:48:12;;;;;;;;;;;11.90;99.90;;;;;;5076561;28;19942;-71
2022/05/07 02:50:37;;;;;;;;;;;11.90;99.90;;;;;;5071505;28;19935;-71
2022/05/07 02:53:03;;;;;;;;;;;11.90;99.90;;;;;;5073175;28;19912;-71
2022/05/07 02:55:28;;;;;;;;;;;11.80;99.90;;;;;;5075921;28;20295;-71
2022/05/07 02:57:54;;;;;;;;;;;11.80;99.90;;;;;;5075789;28;19921;-71
2022/05/07 03:00:19;;;;;;;;;;;11.80;99.90;;;;;;5074361;28;19952;-71
2022/05/07 03:02:45;;;;;;;;;;;11.80;99.90;;;;;;5071705;28;19912;-71
2022/05/07 03:05:11;;;;;;;;;;;11.80;99.90;;;;;;5072232;28;19913;-71
2022/05/07 03:07:36;;;;;;;;;;;11.80;99.90;;;;;;5072561;28;19913;-71
2022/05/07 03:10:03;;;;;;;;;;;11.80;99.90;;;;;;5074453;28;19991;-71
2022/05/07 03:12:28;;;;;;;;;;;11.80;99.90;;;;;;5051094;28;19929;-71
2022/05/07 03:14:54;;;;;;;;;;;11.80;99.90;;;;;;5069895;28;19916;-71
2022/05/07 03:17:20;;;;;;;;;;;11.80;99.90;;;;;;5072017;28;19918;-71
2022/05/07 03:19:45;;;;;;;;;;;11.80;99.90;;;;;;5065799;28;20304;-71
2022/05/07 03:22:11;;;;;;;;;;;11.80;99.90;;;;;;5069351;28;20000;-71
2022/05/07 03:24:41;;;;;;;;;;;11.80;99.90;;;;;;5061793;28;19952;-71
2022/05/07 03:27:07;;;;;;;;;;;11.80;99.90;;;;;;5057360;28;19977;-71
2022/05/07 03:29:32;;;;;;;;;;;11.80;99.90;;;;;;5056003;28;20324;-71
2022/05/07 03:31:58;;;;;;;;;;;11.80;99.90;;;;;;5074848;28;19923;-70
2022/05/07 03:34:23;;;;;;;;;;;11.70;99.90;;;;;;5074257;28;19958;-71
2022/05/07 03:36:49;;;;;;;;;;;11.70;99.90;;;;;;5073003;28;20015;-71
2022/05/07 03:39:14;;;;;;;;;;;11.80;99.90;;;;;;5075611;28;19908;-71
2022/05/07 03:41:40;;;;;;;;;;;11.80;99.90;;;;;;5074986;28;19912;-71
2022/05/07 03:44:06;;;;;;;;;;;11.80;99.90;;;;;;5062119;28;19913;-70
2022/05/07 03:46:31;;;;;;;;;;;11.80;99.90;;;;;;5070817;28;19916;-71
2022/05/07 03:48:57;;;;;;;;;;;11.80;99.90;;;;;;5075324;28;19913;-71
2022/05/07 03:51:22;;;;;;;;;;;11.80;99.90;;;;;;5070835;28;20003;-70
2022/05/07 03:53:48;;;;;;;;;;;11.80;99.90;;;;;;5072096;28;19913;-71
2022/05/07 03:56:14;;;;;;;;;;;11.80;99.90;;;;;;5074009;28;19999;-71
2022/05/07 03:58:40;;;;;;;;;;;11.90;99.90;;;;;;5071958;28;20394;-71
2022/05/07 04:01:08;;;;;;;;;;;11.90;99.90;;;;;;5074903;28;19940;-71
2022/05/07 04:03:34;;;;;;;;;;;11.90;99.90;;;;;;5068317;28;19966;-71
2022/05/07 04:05:59;;;;;;;;;;;11.90;99.90;;;;;;5066540;28;20299;-71
2022/05/07 04:08:25;;;;;;;;;;;11.90;99.90;;;;;;5072979;28;19913;-71
2022/05/07 04:10:51;;;;;;;;;;;11.90;99.90;;;;;;5073514;28;20260;-71
2022/05/07 04:13:16;;;;;;;;;;;11.90;99.90;;;;;;5071985;28;20114;-71
2022/05/07 04:15:45;;;;;;;;;;;11.90;99.90;;;;;;5074595;28;20374;-71
2022/05/07 04:18:11;;;;;;;;;;;11.90;99.90;;;;;;5074463;28;19909;-71
2022/05/07 04:20:37;;;;;;;;;;;11.90;99.90;;;;;;5065410;28;19923;-71
2022/05/07 04:23:02;;;;;;;;;;;11.90;99.90;;;;;;5070797;28;19916;-71
2022/05/07 04:25:28;;;;;;;;;;;11.90;99.90;;;;;;5072149;28;19912;-71
2022/05/07 04:27:54;;;;;;;;;;;11.90;99.90;;;;;;5073444;28;19920;-71
2022/05/07 04:30:20;;;;;;;;;;;11.90;99.90;;;;;;5071722;28;19924;-71
2022/05/07 04:32:46;;;;;;;;;;;11.90;99.90;;;;;;5069900;28;20317;-71
2022/05/07 04:35:11;;;;;;;;;;;11.90;99.90;;;;;;5072675;28;19975;-71
2022/05/07 04:37:37;;;;;;;;;;;12.00;99.90;;;;;;5072366;28;19928;-71
2022/05/07 04:40:03;;;;;;;;;;;12.00;99.90;;;;;;5069488;28;19920;-71
2022/05/07 04:42:28;;;;;;;;;;;12.00;99.90;;;;;;5072630;28;19912;-71
2022/05/07 04:44:54;;;;;;;;;;;12.00;99.90;;;;;;5072481;28;19927;-71
2022/05/07 04:47:19;;;;;;;;;;;12.10;99.90;;;;;;5073207;28;19912;-71
2022/05/07 04:49:45;;;;;;;;;;;12.10;99.90;;;;;;5068988;28;19966;-70
2022/05/07 04:52:11;;;;;;;;;;;12.10;99.90;;;;;;5074114;28;19920;-71
2022/05/07 04:54:37;;;;;;;;;;;12.10;99.90;;;;;;5075324;28;19920;-71
2022/05/07 04:57:03;;;;;;;;;;;12.10;99.90;;;;;;5077726;28;19995;-71
2022/05/07 04:59:29;;;;;;;;;;;12.20;99.90;;;;;;5074448;28;20007;-71
2022/05/07 05:01:54;;;;;;;;;;;12.20;99.90;;;;;;5066314;28;19920;-71
2022/05/07 05:04:20;;;;;;;;;;;12.10;99.90;;;;;;5077258;28;20373;-71
2022/05/07 05:06:46;;;;;;;;;;;12.10;99.90;;;;;;5076832;28;20262;-71
2022/05/07 05:09:15;;;;;;;;;;;12.10;99.90;;;;;;5075509;28;19990;-71
2022/05/07 05:11:41;;;;;;;;;;;12.10;99.90;;;;;;5074661;28;19959;-71
2022/05/07 05:16:51;;;;;;;;;;;12.10;99.90;;;;;;5076919;28;19920;-71
2022/05/07 05:19:17;;;;;;;;;;;12.20;99.90;;;;;;5074914;28;19916;-71
2022/05/07 05:21:43;;;;;;;;;;;12.20;99.90;;;;;;5075444;28;20015;-71
2022/05/07 05:24:09;;;;;;;;;;;12.20;99.90;;;;;;5076836;28;20011;-71
2022/05/07 05:26:35;;;;;;;;;;;12.30;99.90;;;;;;5074923;28;19917;-71
2022/05/07 05:29:00;;;;;;;;;;;12.30;99.90;;;;;;5072074;28;20275;-71
2022/05/07 05:31:28;;;;;;;;;;;12.40;99.90;;;;;;5069496;28;20235;-71
2022/05/07 05:33:54;;;;;;;;;;;12.40;99.90;;;;;;5074443;28;19912;-72
2022/05/07 05:36:20;;;;;;;;;;;12.40;99.90;;;;;;5074045;28;19924;-71
2022/05/07 05:38:46;;;;;;;;;;;12.50;99.90;;;;;;5073690;28;19957;-71
2022/05/07 05:41:11;;;;;;;;;;;12.60;99.90;;;;;;5074019;28;19917;-71
2022/05/07 05:43:38;;;;;;;;;;;12.60;99.90;;;;;;5075260;28;20042;-71
2022/05/07 05:46:03;;;;;;;;;;;12.70;99.90;;;;;;5076058;28;19919;-71
2022/05/07 05:48:29;;;;;;;;;;;12.70;99.90;;;;;;5074498;28;19916;-71
2022/05/07 05:50:55;;;;;;;;;;;12.80;99.90;;;;;;5074106;28;19956;-70
2022/05/07 05:53:21;;;;;;;;;;;12.90;99.90;;;;;;5075987;28;19912;-71
2022/05/07 05:55:47;;;;;;;;;;;12.90;99.90;;;;;;5074677;28;19929;-71
2022/05/07 05:58:13;;;;;;;;;;;12.90;99.90;;;;;;5071979;28;19921;-71
2022/05/07 06:00:39;;;;;;;;;;;13.00;99.90;;;;;;5075782;28;19916;-71
2022/05/07 06:03:05;;;;;;;;;;;13.00;99.90;;;;;;5054061;28;19912;-71
2022/05/07 06:05:30;;;;;;;;;;;13.00;99.90;;;;;;5072919;28;20230;-71
2022/05/07 06:07:56;;;;;;;;;;;13.00;99.90;;;;;;5073844;28;19908;-71
2022/05/07 06:10:22;;;;;;;;;;;13.00;99.90;;;;;;5074737;28;19922;-71
2022/05/07 06:12:47;;;;;;;;;;;13.10;99.90;;;;;;5075894;28;19949;-71
2022/05/07 06:15:13;;;;;;;;;;;13.20;99.90;;;;;;5075378;28;19912;-71
2022/05/07 06:17:39;;;;;;;;;;;13.30;99.90;;;;;;5074275;28;19943;-71
2022/05/07 06:20:05;;;;;;;;;;;13.50;99.90;;;;;;5074919;28;19954;-71
2022/05/07 06:22:30;;;;;;;;;;;13.60;99.90;;;;;;5075369;28;20378;-71
2022/05/07 06:27:40;;;;;;;;;;;13.80;99.90;;;;;;5072203;28;19967;-70
2022/05/07 06:30:06;;;;;;;;;;;14.00;99.90;;;;;;5070513;28;19963;-70
2022/05/07 06:32:36;;;;;;;;;;;14.20;99.90;;;;;;5076318;28;20017;-71
2022/05/07 06:35:05;;;;;;;;;;;14.30;99.90;;;;;;5069865;28;19963;-71
2022/05/07 06:37:32;;;;;;;;;;;14.60;99.90;;;;;;5074002;28;19913;-70
2022/05/07 06:39:57;;;;;;;;;;;14.90;99.90;;;;;;5074974;28;20291;-71
2022/05/07 06:42:23;;;;;;;;;;;15.10;99.90;;;;;;5071293;28;19958;-71
2022/05/07 06:44:49;;;;;;;;;;;15.30;99.90;;;;;;5071822;28;19920;-71
2022/05/07 06:47:15;;;;;;;;;;;15.50;99.90;;;;;;5072903;28;19912;-71
2022/05/07 06:49:43;;;;;;;;;;;15.70;99.90;;;;;;5075745;28;19913;-71
2022/05/07 06:52:08;;;;;;;;;;;16.00;99.90;;;;;;5076046;28;19916;-70
2022/05/07 06:54:34;;;;;;;;;;;16.10;99.90;;;;;;5075550;28;19912;-70
2022/05/07 06:57:00;;;;;;;;;;;16.10;99.90;;;;;;5059743;28;20008;-71
2022/05/07 06:59:50;;;;;;;;;;;16.10;99.90;;;;;;5057888;28;20456;-71
2022/05/07 07:02:16;;;;;;;;;;;16.20;99.90;;;;;;5070908;28;19961;-71
2022/05/07 07:04:41;;;;;;;;;;;16.20;99.90;;;;;;5073718;28;20257;-71
2022/05/07 07:07:07;;;;;;;;;;;16.30;99.90;;;;;;5073666;28;19916;-71
2022/05/07 07:09:33;;;;;;;;;;;16.30;99.90;;;;;;5073377;28;20307;-71
2022/05/07 07:11:59;;;;;;;;;;;16.30;99.90;;;;;;5071694;28;19985;-71
2022/05/07 07:14:25;;;;;;;;;;;16.40;99.90;;;;;;5072413;28;19920;-71
2022/05/07 07:16:50;;;;;;;;;;;16.30;99.90;;;;;;5073749;28;19913;-70
2022/05/07 07:19:16;;;;;;;;;;;16.30;99.90;;;;;;5072949;28;19944;-71
2022/05/07 07:21:43;;;;;;;;;;;16.30;99.90;;;;;;5073366;28;19913;-71
2022/05/07 07:24:08;;;;;;;;;;;16.40;99.90;;;;;;5074070;28;19913;-71
2022/05/07 07:26:34;;;;;;;;;;;16.60;99.90;;;;;;5073100;28;19923;-71
2022/05/07 07:28:59;;;;;;;;;;;17.00;99.90;;;;;;5064499;28;19963;-71
2022/05/07 07:31:25;;;;;;;;;;;16.90;99.90;;;;;;5074045;28;20296;-70
2022/05/07 07:33:51;;;;;;;;;;;16.50;99.90;;;;;;5073989;28;19927;-70
2022/05/07 07:36:17;;;;;;;;;;;16.60;99.90;;;;;;5071050;28;19920;-71
2022/05/07 07:38:43;;;;;;;;;;;16.80;99.90;;;;;;5068390;28;19916;-71
2022/05/07 07:41:08;;;;;;;;;;;16.70;99.90;;;;;;5073248;28;19938;-70
2022/05/07 07:43:35;;;;;;;;;;;16.40;99.90;;;;;;5073717;28;20138;-70
2022/05/07 07:48:46;;;;;;;;;;;16.40;99.90;;;;;;5073151;28;19923;-70
2022/05/07 07:51:12;;;;;;;;;;;16.20;99.90;;;;;;5071921;28;19938;-70
2022/05/07 07:53:38;;;;;;;;;;;16.10;99.90;;;;;;5071820;28;19916;-70
2022/05/07 07:56:05;;;;;;;;;;;16.20;99.90;;;;;;5072813;28;20011;-70
2022/05/07 07:58:30;;;;;;;;;;;16.30;99.90;;;;;;5071137;28;19912;-70
2022/05/07 08:00:56;;;;;;;;;;;16.40;99.90;;;;;;5073177;28;19923;-70
2022/05/07 08:03:22;;;;;;;;;;;16.40;99.90;;;;;;5072270;28;20365;-70
2022/05/07 08:05:49;;;;;;;;;;;16.60;99.90;;;;;;5072789;28;20330;-70
2022/05/07 08:13:45;;;;;;;;;;;17.60;99.90;;;;;;5072276;28;20349;-70
2022/05/07 08:16:11;;;;;;;;;;;17.70;99.90;;;;;;5072755;28;19916;-71
2022/05/07 08:18:37;;;;;;;;;;;17.80;99.90;;;;;;5072522;28;20030;-71
2022/05/07 08:21:03;;;;;;;;;;;18.10;99.90;;;;;;5072185;28;19969;-70
2022/05/07 08:23:29;;;;;;;;;;;18.30;99.90;;;;;;5070965;28;20307;-72
2022/05/07 08:25:54;;;;;;;;;;;18.50;99.90;;;;;;5073757;28;19962;-70
2022/05/07 08:28:26;;;;;;;;;;;18.50;99.90;;;;;;5072508;28;20568;-71
2022/05/07 08:30:53;;;;;;;;;;;19.10;99.90;;;;;;5071816;28;20318;-70
2022/05/07 08:33:19;;;;;;;;;;;18.90;99.90;;;;;;5076105;28;19913;-71
2022/05/07 08:35:44;;;;;;;;;;;19.60;99.90;;;;;;5076207;28;20310;-71
2022/05/07 08:38:10;;;;;;;;;;;20.00;99.90;;;;;;5068037;28;19912;-70
2022/05/07 08:40:36;;;;;;;;;;;20.30;99.90;;;;;;5073645;28;19917;-71
2022/05/07 08:43:03;;;;;;;;;;;20.40;99.90;;;;;;5070926;28;19928;-71
2022/05/07 08:45:28;;;;;;;;;;;20.80;99.90;;;;;;5076619;28;19918;-70
2022/05/07 08:47:54;;;;;;;;;;;20.50;99.90;;;;;;5077374;28;19999;-70
2022/05/07 08:50:20;;;;;;;;;;;20.10;99.90;;;;;;5077107;28;19920;-70
2022/05/07 08:52:46;;;;;;;;;;;19.40;99.90;;;;;;5076994;28;19916;-70
2022/05/07 08:55:13;;;;;;;;;;;19.00;99.90;;;;;;5076900;28;19912;-70
2022/05/07 08:57:39;;;;;;;;;;;18.80;99.90;;;;;;5077065;28;19913;-71
2022/05/07 09:00:05;;;;;;;;;;;19.00;99.90;;;;;;5076855;28;19990;-70
2022/05/07 09:02:39;;;;;;;;;;;19.20;99.90;;;;;;5075695;28;19913;-70
2022/05/07 09:05:05;;;;;;;;;;;19.20;99.90;;;;;;5075836;28;19912;-70
2022/05/07 09:07:31;;;;;;;;;;;19.60;99.90;;;;;;5076546;28;19922;-71
2022/05/07 09:09:57;;;;;;;;;;;19.60;99.90;;;;;;5075356;28;20031;-73
2022/05/07 09:12:29;;;;;;;;;;;19.40;99.90;;;;;;5075057;28;19928;-72
2022/05/07 09:15:02;;;;;;;;;;;19.40;99.90;;;;;;5076188;28;19938;-71
2022/05/07 09:17:27;;;;;;;;;;;19.60;99.90;;;;;;5073937;28;20258;-72
2022/05/07 09:19:53;;;;;;;;;;;19.70;99.90;;;;;;5075270;28;19917;-71
2022/05/07 09:22:19;;;;;;;;;;;19.80;99.90;;;;;;5074425;28;20023;-74
2022/05/07 09:24:55;;;;;;;;;;;19.80;99.90;;;;;;5075200;28;19958;-70
2022/05/07 09:27:21;;;;;;;;;;;19.60;99.90;;;;;;5072610;28;19920;-70
2022/05/07 09:29:57;;;;;;;;;;;19.30;99.90;;;;;;5074942;28;19908;-72
2022/05/07 09:32:33;;;;;;;;;;;19.50;99.90;;;;;;5074296;28;19920;-71
2022/05/07 09:37:43;;;;;;;;;;;19.50;99.90;;;;;;5077839;28;19958;-71
2022/05/07 09:40:09;;;;;;;;;;;19.60;99.90;;;;;;5076530;28;19952;-71
2022/05/07 09:42:35;;;;;;;;;;;19.60;99.90;;;;;;5072580;28;19921;-71
2022/05/07 09:45:03;;;;;;;;;;;19.50;99.90;;;;;;5075272;28;19913;-70
2022/05/07 09:47:29;;;;;;;;;;;19.40;99.90;;;;;;5058627;28;19917;-71
2022/05/07 09:58:16;;;;;;;;;;;19.70;99.90;;;;;;5076003;28;20007;-70
2022/05/07 10:00:48;;;;;;;;;;;19.50;99.90;;;;;;5077557;28;19915;-69
2022/05/07 10:03:21;;;;;;;;;;;19.50;99.90;;;;;;5077487;28;19909;-70
2022/05/07 10:05:57;;;;;;;;;;;19.20;99.90;;;;;;5077289;28;19912;-70
2022/05/07 10:08:31;;;;;;;;;;;19.20;99.90;;;;;;5074259;28;19920;-70
2022/05/07 10:10:57;;;;;;;;;;;19.30;99.90;;;;;;5057217;28;19935;-70
2022/05/07 10:13:24;;;;;;;;;;;19.30;99.90;;;;;;5057224;28;19921;-70
2022/05/07 10:16:00;;;;;;;;;;;19.50;99.90;;;;;;5057227;28;20022;-71
2022/05/07 10:18:41;;;;;;;;;;;19.70;99.90;;;;;;5058461;28;20009;-70
2022/05/07 10:21:11;;;;;;;;;;;19.60;99.90;;;;;;5057478;28;20222;-70
2022/05/07 10:23:47;;;;;;;;;;;19.70;99.90;;;;;;5075341;28;19919;-70
2022/05/07 10:26:12;;;;;;;;;;;19.60;99.90;;;;;;5077347;28;19948;-69
2022/05/07 10:28:40;;;;;;;;;;;19.70;99.90;;;;;;5076405;28;19948;-71
2022/05/07 10:31:14;;;;;;;;;;;19.80;99.90;;;;;;5076726;28;20007;-70
2022/05/07 10:33:40;;;;;;;;;;;19.50;99.90;;;;;;5077088;28;19919;-70
2022/05/07 10:36:09;;;;;;;;;;;19.60;99.90;;;;;;5076882;28;19999;-69
2022/05/07 10:38:38;;;;;;;;;;;19.80;99.90;;;;;;5077122;28;19908;-70
2022/05/07 10:41:17;;;;;;;;;;;19.80;99.90;;;;;;5075282;28;19940;-70
2022/05/07 10:43:46;;;;;;;;;;;19.50;99.90;;;;;;5076002;28;19966;-70
2022/05/07 10:46:14;;;;;;;;;;;19.50;99.90;;;;;;5076447;28;19908;-70
2022/05/07 10:48:45;;;;;;;;;;;19.30;99.90;;;;;;5066072;28;19919;-69
2022/05/07 10:51:18;;;;;;;;;;;19.30;99.90;;;;;;5071071;28;19917;-70
2022/05/07 10:53:43;;;;;;;;;;;19.20;99.90;;;;;;5075313;28;19941;-72
2022/05/07 10:56:21;;;;;;;;;;;18.90;99.90;;;;;;5073664;28;20411;-69
2022/05/07 10:58:48;;;;;;;;;;;18.80;99.90;;;;;;5072589;28;20007;-70
2022/05/07 11:01:14;;;;;;;;;;;19.10;99.90;;;;;;5072448;28;19970;-70
2022/05/07 11:03:40;;;;;;;;;;;19.00;99.90;;;;;;5074749;28;20003;-71
2022/05/07 11:06:06;;;;;;;;;;;19.10;99.90;;;;;;5074082;28;20018;-70
2022/05/07 11:08:32;;;;;;;;;;;19.10;99.90;;;;;;5074335;28;20011;-70
2022/05/07 11:11:15;;;;;;;;;;;19.20;99.90;;;;;;5074851;28;20311;-70
2022/05/07 11:13:45;;;;;;;;;;;19.40;99.90;;;;;;5074660;28;19974;-70
2022/05/07 11:16:11;;;;;;;;;;;19.70;99.90;;;;;;5076168;28;19909;-70
2022/05/07 11:18:36;;;;;;;;;;;20.00;99.90;;;;;;5063087;28;19920;-69
2022/05/07 11:21:03;;;;;;;;;;;20.00;99.90;;;;;;5056209;28;19912;-70
2022/05/07 11:23:30;;;;;;;;;;;20.10;99.90;;;;;;5070885;28;19965;-71
2022/05/07 11:25:56;;;;;;;;;;;19.80;99.90;;;;;;5074810;28;19909;-69
2022/05/07 11:28:22;;;;;;;;;;;19.60;99.90;;;;;;5073877;28;19924;-71
2022/05/07 11:30:54;;;;;;;;;;;19.50;99.90;;;;;;5073805;28;19927;-69
2022/05/07 11:33:23;;;;;;;;;;;19.50;99.90;;;;;;5073926;28;19913;-69
2022/05/07 11:35:58;;;;;;;;;;;19.50;99.90;;;;;;5073586;28;19918;-71
2022/05/07 11:38:24;;;;;;;;;;;19.30;99.90;;;;;;5070483;28;19938;-70
2022/05/07 11:40:50;;;;;;;;;;;19.40;99.90;;;;;;5074864;28;19913;-70
2022/05/07 11:46:06;;;;;;;;;;;19.30;99.90;;;;;;5075224;28;20381;-69
2022/05/07 11:48:32;;;;;;;;;;;19.40;99.90;;;;;;5074826;28;20205;-71
2022/05/07 11:50:59;;;;;;;;;;;19.50;99.90;;;;;;5068746;28;20402;-71
2022/05/07 11:53:35;;;;;;;;;;;19.60;99.90;;;;;;5066902;28;19916;-70
2022/05/07 11:56:07;;;;;;;;;;;19.60;99.90;;;;;;5075587;28;19916;-71
2022/05/07 11:58:46;;;;;;;;;;;19.50;99.90;;;;;;5074957;28;20214;-70
2022/05/07 12:01:22;;;;;;;;;;;19.50;99.90;;;;;;5074778;28;19913;-70
2022/05/07 12:03:51;;;;;;;;;;;19.60;99.90;;;;;;5074659;28;19962;-70
2022/05/07 12:06:26;;;;;;;;;;;19.60;99.90;;;;;;5078465;28;19938;-70
2022/05/07 12:08:52;;;;;;;;;;;19.40;99.90;;;;;;5078587;28;20320;-71
2022/05/07 12:11:18;;;;;;;;;;;19.50;99.90;;;;;;5078134;28;19968;-70
2022/05/07 12:13:45;;;;;;;;;;;19.50;99.90;;;;;;5074555;28;19943;-70
2022/05/07 12:18:55;;;;;;;;;;;19.20;99.90;;;;;;5076543;28;20004;-71
2022/05/07 12:29:48;;;;;;;;;;;19.20;99.90;;;;;;5076832;28;19999;-70
2022/05/07 12:29:49;;;;;;;;;;;19.20;99.90;;;;;;5079059;28;20319;-70
2022/05/07 12:32:26;;;;;;;;;;;19.40;99.90;;;;;;5075853;28;19919;-70
2022/05/07 12:34:52;;;;;;;;;;;19.30;99.90;;;;;;5073318;28;19924;-70
2022/05/07 12:37:18;;;;;;;;;;;19.10;99.90;;;;;;5075415;28;20231;-70
2022/05/07 12:39:44;;;;;;;;;;;19.00;99.90;;;;;;5077937;28;19970;-69
2022/05/07 12:42:11;;;;;;;;;;;18.80;99.90;;;;;;5076670;28;19913;-73
2022/05/07 12:44:36;;;;;;;;;;;18.70;99.90;;;;;;5078037;28;20015;-70
2022/05/07 12:47:03;;;;;;;;;;;19.00;99.90;;;;;;5077072;28;19999;-70
2022/05/07 12:49:28;;;;;;;;;;;18.80;99.90;;;;;;5077824;28;19959;-72
2022/05/07 12:51:54;;;;;;;;;;;18.80;99.90;;;;;;5069426;28;20263;-71
2022/05/07 12:54:21;;;;;;;;;;;18.50;99.90;;;;;;5059152;28;19924;-70
2022/05/07 12:56:47;;;;;;;;;;;18.60;99.90;;;;;;5073653;28;20062;-71
2022/05/07 12:59:13;;;;;;;;;;;18.70;99.90;;;;;;5077638;28;20318;-71
2022/05/07 13:01:39;;;;;;;;;;;18.50;99.90;;;;;;5077980;28;20365;-70
2022/05/07 13:04:05;;;;;;;;;;;18.20;99.90;;;;;;5060971;28;19916;-69
2022/05/07 13:06:30;;;;;;;;;;;18.10;99.90;;;;;;5075136;28;19962;-70
2022/05/07 13:08:59;;;;;;;;;;;17.80;99.90;;;;;;5078208;28;20025;-70
2022/05/07 13:11:25;;;;;;;;;;;17.80;99.90;;;;;;5076028;28;19912;-70
2022/05/07 13:13:54;;;;;;;;;;;18.00;99.90;;;;;;5062015;28;19932;-71
2022/05/07 13:16:20;;;;;;;;;;;18.10;99.90;;;;;;5066588;28;19919;-70
2022/05/07 13:18:45;;;;;;;;;;;18.30;99.90;;;;;;5077778;28;19920;-72
2022/05/07 13:21:11;;;;;;;;;;;18.10;99.90;;;;;;5077500;28;19974;-70
2022/05/07 13:23:37;;;;;;;;;;;17.90;99.90;;;;;;5066423;28;19912;-71
2022/05/07 13:26:03;;;;;;;;;;;18.10;99.90;;;;;;5058281;28;19913;-70
2022/05/07 13:28:37;;;;;;;;;;;17.80;99.90;;;;;;5068142;28;19916;-70
2022/05/07 13:31:02;;;;;;;;;;;17.80;99.90;;;;;;5066255;28;20027;-70
2022/05/07 13:33:28;;;;;;;;;;;18.20;99.90;;;;;;5075378;28;20010;-72
2022/05/07 13:35:54;;;;;;;;;;;18.30;99.90;;;;;;5074801;28;19913;-70
2022/05/07 13:38:20;;;;;;;;;;;18.40;99.90;;;;;;5076527;28;19981;-70
2022/05/07 13:40:46;;;;;;;;;;;18.10;99.90;;;;;;5076333;28;19913;-69
2022/05/07 13:43:12;;;;;;;;;;;17.90;99.90;;;;;;5074046;28;20214;-70
2022/05/07 13:45:38;;;;;;;;;;;18.00;99.90;;;;;;5072457;28;19920;-73
2022/05/07 13:48:05;;;;;;;;;;;18.10;99.90;;;;;;5073839;28;19931;-69
2022/05/07 13:50:32;;;;;;;;;;;17.90;99.90;;;;;;5074085;28;20258;-70
2022/05/07 13:52:58;;;;;;;;;;;17.90;99.90;;;;;;5071171;28;19923;-73
2022/05/07 13:55:24;;;;;;;;;;;17.90;99.90;;;;;;5068791;28;19912;-70
2022/05/07 13:57:49;;;;;;;;;;;18.20;99.90;;;;;;5073688;28;20523;-72
2022/05/07 14:00:16;;;;;;;;;;;18.40;99.90;;;;;;5073812;28;19920;-70
2022/05/07 14:02:46;;;;;;;;;;;18.20;99.90;;;;;;5071717;28;19913;-70
2022/05/07 14:05:15;;;;;;;;;;;18.00;99.90;;;;;;5073580;28;19919;-71
2022/05/07 14:07:41;;;;;;;;;;;18.10;99.90;;;;;;5073598;28;19913;-71
2022/05/07 14:10:07;;;;;;;;;;;18.10;99.90;;;;;;5074680;28;19959;-72
2022/05/07 14:12:33;;;;;;;;;;;18.20;99.90;;;;;;5073395;28;19924;-69
2022/05/07 14:14:59;;;;;;;;;;;18.50;99.90;;;;;;5075352;28;19970;-71
2022/05/07 14:17:25;;;;;;;;;;;18.50;99.90;;;;;;5074929;28;20753;-70
2022/05/07 14:19:52;;;;;;;;;;;18.30;99.90;;;;;;5074212;28;20041;-71
2022/05/07 14:22:18;;;;;;;;;;;18.00;99.90;;;;;;5073565;28;19928;-72
2022/05/07 14:24:43;;;;;;;;;;;18.20;99.90;;;;;;5074674;28;19913;-70
2022/05/07 14:27:09;;;;;;;;;;;18.30;99.90;;;;;;5072127;28;20319;-70
2022/05/07 14:29:35;;;;;;;;;;;18.20;99.90;;;;;;5064528;28;19919;-70
2022/05/07 14:32:02;;;;;;;;;;;18.00;99.90;;;;;;5057134;28;19920;-72
2022/05/07 14:34:28;;;;;;;;;;;17.90;99.90;;;;;;5073655;28;19959;-71
2022/05/07 14:36:54;;;;;;;;;;;18.00;99.90;;;;;;5073110;28;19955;-70
2022/05/07 14:39:20;;;;;;;;;;;18.20;99.90;;;;;;5065831;28;20010;-70
2022/05/07 14:41:45;;;;;;;;;;;18.20;99.90;;;;;;5074786;28;19938;-70
2022/05/07 14:44:11;;;;;;;;;;;18.20;99.90;;;;;;5070452;28;19913;-70
2022/05/07 14:46:37;;;;;;;;;;;18.20;99.90;;;;;;5074181;28;20298;-70
2022/05/07 14:49:03;;;;;;;;;;;17.90;99.90;;;;;;5073816;28;19916;-70
2022/05/07 14:51:29;;;;;;;;;;;17.70;99.90;;;;;;5074318;28;20172;-70
2022/05/07 14:53:55;;;;;;;;;;;17.40;99.90;;;;;;5073885;28;20272;-70
2022/05/07 14:56:21;;;;;;;;;;;17.50;99.90;;;;;;5065125;28;20007;-70
2022/05/07 14:58:47;;;;;;;;;;;17.60;99.90;;;;;;5073273;28;19916;-70
2022/05/07 15:01:13;;;;;;;;;;;17.50;99.90;;;;;;5074754;28;19969;-70